createdAt,value
2018-08-30T00:01:30.631Z,8.47
2018-08-30T00:11:32.023Z,8.83
2018-08-30T00:21:33.284Z,8.50
2018-08-30T00:31:34.555Z,8.53
2018-08-30T00:41:35.827Z,8.40
2018-08-30T00:51:38.010Z,8.57
2018-08-30T01:01:39.274Z,8.87
2018-08-30T01:11:40.694Z,8.40
2018-08-30T01:21:41.947Z,9.10
2018-08-30T01:31:43.946Z,8.60
2018-08-30T01:41:45.218Z,9.37
2018-08-30T01:51:46.634Z,8.53
2018-08-30T02:01:48.686Z,10.03
2018-08-30T02:11:50.130Z,10.07
2018-08-30T02:21:51.440Z,9.50
2018-08-30T02:31:52.719Z,9.10
2018-08-30T02:41:53.978Z,9.00
2018-08-30T02:51:55.231Z,9.17
2018-08-30T03:01:57.246Z,8.67
2018-08-30T03:11:59.271Z,9.70
2018-08-30T03:22:00.586Z,8.73
2018-08-30T03:32:01.875Z,9.17
2018-08-30T03:42:03.152Z,9.07
2018-08-30T03:52:05.325Z,10.13
2018-08-30T04:02:06.619Z,9.13
2018-08-30T04:12:07.895Z,9.93
2018-08-30T04:22:09.342Z,10.03
2018-08-30T04:32:11.385Z,9.17
2018-08-30T04:42:13.453Z,10.20
2018-08-30T04:52:14.699Z,10.53
2018-08-30T05:02:15.950Z,10.03
2018-08-30T05:12:17.218Z,11.43
2018-08-30T05:22:18.482Z,9.27
2018-08-30T05:32:19.887Z,10.47
2018-08-30T05:42:21.151Z,10.17
2018-08-30T05:52:22.410Z,8.93
2018-08-30T06:02:23.679Z,10.07
2018-08-30T06:12:24.970Z,10.07
2018-08-30T06:22:26.208Z,11.30
2018-08-30T06:32:27.566Z,10.50
2018-08-30T06:42:28.921Z,10.87
2018-08-30T06:52:31.171Z,10.37
2018-08-30T07:02:32.688Z,10.77
2018-08-30T07:12:34.044Z,10.30
2018-08-30T07:22:36.076Z,10.17
2018-08-30T07:32:37.490Z,9.60
2018-08-30T07:42:38.760Z,9.20
2018-08-30T07:52:40.162Z,9.03
2018-08-30T08:02:41.436Z,9.83
2018-08-30T08:12:43.509Z,9.75
2018-08-30T08:22:44.876Z,9.38
2018-08-30T08:32:50.771Z,8.23
2018-08-30T08:42:52.658Z,8.70
2018-08-30T08:52:54.059Z,8.38
2018-08-30T09:02:55.888Z,8.18
2018-08-30T09:12:57.334Z,8.57
2018-08-30T09:22:59.788Z,8.20
2018-08-30T09:33:01.516Z,8.23
2018-08-30T09:43:02.806Z,6.15
2018-08-30T09:53:04.321Z,6.25
2018-08-30T10:03:11.876Z,6.22
2018-08-30T10:13:13.528Z,4.78
2018-08-30T10:23:14.771Z,5.87
2018-08-30T10:33:16.107Z,5.72
2018-08-30T10:43:17.480Z,6.85
2018-08-30T10:53:19.490Z,5.95
2018-08-30T11:03:23.686Z,5.80
2018-08-30T11:13:25.016Z,6.62
2018-08-30T11:23:26.295Z,6.55
2018-08-30T11:33:27.717Z,6.85
2018-08-30T11:43:29.188Z,6.43
2018-08-30T11:53:30.371Z,6.50
2018-08-30T12:03:31.673Z,6.55
